Time;durP1;ratioP1;P1;durP2;ratioP2;P2;SDS_P1;SDS_P2;PMS_P1;PMS_P2;Temp;Humidity;BMP_temperature;BMP_pressure;BME280_temperature;BME280_humidity;BME280_pressure;Samples;Min_cycle;Max_cycle;Signal;HPM_P1;HPM_P2
2022/03/09 00:03:42;;;;;;;54.45;29.20;;;;;;;;;;10301504;28;20121;-72
2022/03/09 00:08:42;;;;;;;58.03;39.17;;;;;;;;;;10301852;28;20031;-72
2022/03/09 00:13:42;;;;;;;59.75;34.25;;;;;;;;;;10285386;28;20294;-72
2022/03/09 00:18:43;;;;;;;56.03;29.70;;;;;;;;;;10286719;28;20113;-71
2022/03/09 00:23:43;;;;;;;68.45;32.55;;;;;;;;;;10286698;28;20033;-76
2022/03/09 00:28:43;;;;;;;59.33;34.30;;;;;;;;;;10286367;28;20034;-72
2022/03/09 00:33:43;;;;;;;55.92;32.65;;;;;;;;;;10285443;28;20274;-71
2022/03/09 00:38:44;;;;;;;71.68;39.53;;;;;;;;;;10285203;28;20035;-72
2022/03/09 00:43:44;;;;;;;68.90;37.42;;;;;;;;;;10284982;28;20482;-73
2022/03/09 00:48:44;;;;;;;61.70;37.65;;;;;;;;;;10284063;28;20053;-72
2022/03/09 00:53:45;;;;;;;67.40;39.95;;;;;;;;;;10284631;28;20031;-73
2022/03/09 00:58:47;;;;;;;61.97;34.65;;;;;;;;;;10300329;28;20472;-74
2022/03/09 01:03:48;;;;;;;68.18;33.58;;;;;;;;;;10283869;28;20039;-71
2022/03/09 01:08:48;;;;;;;54.57;28.23;;;;;;;;;;10283612;28;20039;-73
2022/03/09 01:13:48;;;;;;;58.37;29.67;;;;;;;;;;10299309;28;20501;-73
2022/03/09 01:18:48;;;;;;;65.63;31.40;;;;;;;;;;10283627;28;20306;-68
2022/03/09 01:23:49;;;;;;;57.55;30.90;;;;;;;;;;10284162;28;20061;-75
2022/03/09 01:28:49;;;;;;;47.88;26.13;;;;;;;;;;10283241;28;20390;-71
2022/03/09 01:33:49;;;;;;;60.72;31.50;;;;;;;;;;10284574;28;20030;-76
2022/03/09 01:38:49;;;;;;;50.93;36.87;;;;;;;;;;10284097;28;20022;-74
2022/03/09 01:44:10;;;;;;;63.10;34.92;;;;;;;;;;10282749;28;20035;-76
2022/03/09 01:49:10;;;;;;;53.03;26.48;;;;;;;;;;10299449;28;20027;-74
2022/03/09 01:54:11;;;;;;;56.40;30.00;;;;;;;;;;10298856;28;20088;-71
2022/03/09 01:59:12;;;;;;;52.60;30.58;;;;;;;;;;10282423;28;20034;-74
2022/03/09 02:04:13;;;;;;;57.17;32.10;;;;;;;;;;10284093;28;20049;-71
2022/03/09 02:14:32;;;;;;;54.53;29.45;;;;;;;;;;10283163;28;20460;-70
2022/03/09 02:19:33;;;;;;;59.70;32.05;;;;;;;;;;10283003;28;20034;-71
2022/03/09 02:24:34;;;;;;;52.22;30.13;;;;;;;;;;10298961;28;20452;-71
2022/03/09 02:29:34;;;;;;;51.40;30.42;;;;;;;;;;10289985;28;20018;-70
2022/03/09 02:34:34;;;;;;;54.85;25.55;;;;;;;;;;10306143;28;20050;-74
2022/03/09 02:39:35;;;;;;;57.73;31.03;;;;;;;;;;10305930;28;20018;-70
2022/03/09 02:44:35;;;;;;;58.47;30.65;;;;;;;;;;10289850;28;20022;-71
2022/03/09 02:49:36;;;;;;;55.13;29.17;;;;;;;;;;10305665;28;20081;-73
2022/03/09 02:54:36;;;;;;;54.30;28.03;;;;;;;;;;10289779;28;20768;-72
2022/03/09 02:59:36;;;;;;;55.22;26.85;;;;;;;;;;10289748;28;20034;-71
2022/03/09 03:04:37;;;;;;;57.17;29.08;;;;;;;;;;10290377;28;20030;-71
2022/03/09 03:09:37;;;;;;;52.92;29.52;;;;;;;;;;10287300;28;20029;-76
2022/03/09 03:14:37;;;;;;;47.03;28.20;;;;;;;;;;10288094;28;20042;-70
2022/03/09 03:19:37;;;;;;;46.38;22.83;;;;;;;;;;10304053;28;20055;-70
2022/03/09 03:24:38;;;;;;;54.88;30.88;;;;;;;;;;10288397;28;20026;-70
2022/03/09 03:29:38;;;;;;;55.90;32.90;;;;;;;;;;10289128;28;20030;-72
2022/03/09 03:34:38;;;;;;;47.50;24.77;;;;;;;;;;10287434;28;20019;-72
2022/03/09 03:39:39;;;;;;;51.23;28.17;;;;;;;;;;10301816;28;20023;-73
2022/03/09 03:44:39;;;;;;;48.17;28.45;;;;;;;;;;10303038;28;20270;-73
2022/03/09 03:49:39;;;;;;;51.03;28.87;;;;;;;;;;10285924;28;20056;-70
2022/03/09 03:54:40;;;;;;;56.83;29.00;;;;;;;;;;10301310;28;20154;-71
2022/03/09 03:59:40;;;;;;;56.90;27.67;;;;;;;;;;10285819;28;20011;-70
2022/03/09 04:04:40;;;;;;;57.45;28.15;;;;;;;;;;10302235;28;20027;-69
2022/03/09 04:09:40;;;;;;;54.35;29.77;;;;;;;;;;10285192;28;20069;-70
2022/03/09 04:14:41;;;;;;;46.97;26.27;;;;;;;;;;10286716;28;20061;-71
2022/03/09 04:19:41;;;;;;;43.43;23.17;;;;;;;;;;10285168;28;20030;-67
2022/03/09 04:24:41;;;;;;;50.37;24.77;;;;;;;;;;10285230;28;20023;-71
2022/03/09 04:29:42;;;;;;;47.10;25.85;;;;;;;;;;10284889;28;20033;-68
2022/03/09 04:34:42;;;;;;;48.75;26.55;;;;;;;;;;10284606;28;20030;-75
2022/03/09 04:39:42;;;;;;;54.90;29.60;;;;;;;;;;10285457;28;20026;-70
2022/03/09 04:44:42;;;;;;;54.83;30.20;;;;;;;;;;10284659;28;20019;-71
2022/03/09 04:49:43;;;;;;;46.67;29.63;;;;;;;;;;10283565;28;20031;-74
2022/03/09 04:54:43;;;;;;;59.93;31.37;;;;;;;;;;10283936;28;20018;-70
2022/03/09 04:59:43;;;;;;;56.80;26.90;;;;;;;;;;10284044;28;20038;-74
2022/03/09 05:04:44;;;;;;;41.08;25.05;;;;;;;;;;10283504;28;20262;-73
2022/03/09 05:09:44;;;;;;;52.88;30.35;;;;;;;;;;10282814;28;20027;-77
2022/03/09 05:14:44;;;;;;;50.03;26.73;;;;;;;;;;10282665;28;20039;-72
2022/03/09 05:19:45;;;;;;;47.40;29.27;;;;;;;;;;10282813;28;20473;-73
2022/03/09 05:24:45;;;;;;;53.40;30.87;;;;;;;;;;10282979;28;20715;-74
2022/03/09 05:29:45;;;;;;;50.25;24.27;;;;;;;;;;10298599;28;20141;-72
2022/03/09 05:34:47;;;;;;;57.37;26.97;;;;;;;;;;10298063;28;20096;-72
2022/03/09 05:39:47;;;;;;;49.60;30.40;;;;;;;;;;10297341;28;20027;-73
2022/03/09 05:44:47;;;;;;;50.58;28.70;;;;;;;;;;10275423;28;20045;-76
2022/03/09 05:49:47;;;;;;;53.03;26.90;;;;;;;;;;10298121;28;20041;-72
2022/03/09 05:54:48;;;;;;;50.30;27.90;;;;;;;;;;10280148;28;20247;-74
2022/03/09 05:59:48;;;;;;;41.65;22.80;;;;;;;;;;10278165;28;20384;-73
2022/03/09 06:04:49;;;;;;;48.13;28.30;;;;;;;;;;10288975;28;20067;-72
2022/03/09 06:09:49;;;;;;;51.53;29.75;;;;;;;;;;10286731;28;20517;-73
2022/03/09 06:14:49;;;;;;;50.10;29.50;;;;;;;;;;10286995;28;20057;-73
2022/03/09 06:19:49;;;;;;;47.63;29.43;;;;;;;;;;10286504;28;20129;-72
2022/03/09 06:24:50;;;;;;;45.15;23.45;;;;;;;;;;10289748;28;20285;-79
2022/03/09 06:29:50;;;;;;;55.47;29.17;;;;;;;;;;10304997;28;20026;-76
2022/03/09 06:34:50;;;;;;;54.67;26.00;;;;;;;;;;10304763;28;20118;-73
2022/03/09 06:39:51;;;;;;;48.30;25.53;;;;;;;;;;10288458;28;20030;-74
2022/03/09 06:44:51;;;;;;;46.60;24.35;;;;;;;;;;10287675;28;20031;-77
2022/03/09 06:49:52;;;;;;;45.70;21.17;;;;;;;;;;10304239;28;20037;-76
2022/03/09 06:54:52;;;;;;;47.60;23.20;;;;;;;;;;10288935;28;20432;-75
2022/03/09 06:59:52;;;;;;;47.65;23.15;;;;;;;;;;10288156;28;20301;-76
2022/03/09 07:04:52;;;;;;;39.05;19.63;;;;;;;;;;10288820;28;20493;-75
2022/03/09 07:09:53;;;;;;;43.67;21.67;;;;;;;;;;10290053;28;20577;-74
2022/03/09 07:14:53;;;;;;;44.00;19.57;;;;;;;;;;10288449;28;20406;-77
2022/03/09 07:19:53;;;;;;;39.78;21.50;;;;;;;;;;10305251;28;20499;-76
2022/03/09 07:24:54;;;;;;;43.55;21.13;;;;;;;;;;10287477;28;20861;-78
2022/03/09 07:29:54;;;;;;;38.20;19.60;;;;;;;;;;10302782;28;20026;-77
2022/03/09 07:34:55;;;;;;;40.38;18.77;;;;;;;;;;10303601;28;20029;-74
2022/03/09 07:39:55;;;;;;;39.28;18.05;;;;;;;;;;10286500;28;20027;-72
2022/03/09 07:44:55;;;;;;;44.63;20.58;;;;;;;;;;10286027;28;20532;-76
2022/03/09 07:49:56;;;;;;;45.47;21.42;;;;;;;;;;10303598;28;20408;-74
2022/03/09 07:54:56;;;;;;;40.23;20.23;;;;;;;;;;10288460;28;20022;-75
2022/03/09 07:59:57;;;;;;;37.25;17.73;;;;;;;;;;10287782;28;20030;-72
2022/03/09 08:04:57;;;;;;;44.35;17.73;;;;;;;;;;10302664;28;20485;-73
2022/03/09 08:09:58;;;;;;;42.37;18.03;;;;;;;;;;10287884;28;20485;-73
2022/03/09 08:14:58;;;;;;;40.90;18.75;;;;;;;;;;10303792;28;20591;-74
2022/03/09 08:19:58;;;;;;;37.85;18.58;;;;;;;;;;10287806;28;20042;-73
2022/03/09 08:24:59;;;;;;;36.10;18.63;;;;;;;;;;10286933;28;20125;-75
2022/03/09 08:29:59;;;;;;;38.88;17.73;;;;;;;;;;10286335;28;20046;-75
2022/03/09 08:34:59;;;;;;;37.53;18.57;;;;;;;;;;10284397;28;20029;-73
2022/03/09 08:40:00;;;;;;;34.47;17.30;;;;;;;;;;10285060;28;20046;-74
2022/03/09 08:45:01;;;;;;;45.00;20.25;;;;;;;;;;10287093;28;20489;-74
2022/03/09 08:50:01;;;;;;;34.10;17.07;;;;;;;;;;10286546;28;20115;-77
2022/03/09 08:55:02;;;;;;;35.85;17.02;;;;;;;;;;10301309;28;20361;-73
2022/03/09 09:00:04;;;;;;;44.05;17.38;;;;;;;;;;10285416;28;20513;-75
2022/03/09 09:05:05;;;;;;;41.88;19.13;;;;;;;;;;10284221;28;20031;-76
2022/03/09 09:10:06;;;;;;;33.67;16.00;;;;;;;;;;10284288;28;20409;-78
2022/03/09 09:15:06;;;;;;;35.78;16.15;;;;;;;;;;10285470;28;20053;-80
2022/03/09 09:20:07;;;;;;;44.50;15.88;;;;;;;;;;10299818;28;20505;-74
2022/03/09 09:25:08;;;;;;;38.15;19.02;;;;;;;;;;10284810;28;20026;-75
2022/03/09 09:30:09;;;;;;;45.03;19.25;;;;;;;;;;10298792;28;20030;-74
2022/03/09 09:35:12;;;;;;;41.33;20.58;;;;;;;;;;10298275;28;20092;-71
2022/03/09 09:40:13;;;;;;;41.85;18.55;;;;;;;;;;10282888;28;20050;-75
2022/03/09 09:45:13;;;;;;;40.28;19.02;;;;;;;;;;10282673;28;20066;-76
2022/03/09 09:50:14;;;;;;;49.67;17.70;;;;;;;;;;10282115;28;20033;-75
2022/03/09 09:55:14;;;;;;;41.45;17.80;;;;;;;;;;10298056;28;20480;-74
2022/03/09 10:00:15;;;;;;;34.93;15.43;;;;;;;;;;10298272;28;20078;-78
2022/03/09 10:05:16;;;;;;;25.63;12.20;;;;;;;;;;10298312;28;20270;-75
2022/03/09 10:10:17;;;;;;;38.45;11.30;;;;;;;;;;10298236;28;20156;-73
2022/03/09 10:15:18;;;;;;;32.63;13.27;;;;;;;;;;10281540;28;20563;-73
2022/03/09 10:20:23;;;;;;;24.35;12.32;;;;;;;;;;10282417;28;20035;-71
2022/03/09 10:25:23;;;;;;;21.73;10.68;;;;;;;;;;10281395;28;20019;-74
2022/03/09 10:30:29;;;;;;;31.13;12.70;;;;;;;;;;10297445;28;20019;-71
2022/03/09 10:35:29;;;;;;;34.92;13.00;;;;;;;;;;10281592;28;20019;-77
2022/03/09 10:40:30;;;;;;;24.70;11.40;;;;;;;;;;10281700;28;20072;-74
2022/03/09 10:45:30;;;;;;;20.75;11.55;;;;;;;;;;10281173;28;20239;-73
2022/03/09 10:50:30;;;;;;;33.75;12.00;;;;;;;;;;10304740;28;20355;-73
2022/03/09 10:55:32;;;;;;;16.63;8.80;;;;;;;;;;10289067;28;20027;-76
2022/03/09 11:00:36;;;;;;;20.25;11.27;;;;;;;;;;10287924;28;20428;-72
2022/03/09 11:05:46;;;;;;;15.82;8.95;;;;;;;;;;10289037;28;20037;-73
2022/03/09 11:10:47;;;;;;;21.55;9.05;;;;;;;;;;10287665;28;20030;-75
2022/03/09 11:15:48;;;;;;;11.50;6.55;;;;;;;;;;10288278;28;20082;-79
2022/03/09 11:20:49;;;;;;;15.02;8.07;;;;;;;;;;10294821;28;20054;-72
2022/03/09 11:25:49;;;;;;;15.13;7.70;;;;;;;;;;10303465;28;20217;-74
2022/03/09 11:30:53;;;;;;;13.50;6.93;;;;;;;;;;10288110;28;20039;-78
2022/03/09 11:35:54;;;;;;;19.38;9.20;;;;;;;;;;10286641;28;20462;-72
2022/03/09 11:41:12;;;;;;;16.60;8.43;;;;;;;;;;10287969;28;20015;-75
2022/03/09 11:46:13;;;;;;;15.80;9.20;;;;;;;;;;10287594;28;20531;-74
2022/03/09 11:51:13;;;;;;;22.30;8.88;;;;;;;;;;10302930;28;20062;-73
2022/03/09 11:56:21;;;;;;;20.58;10.50;;;;;;;;;;10302097;28;20019;-75
2022/03/09 12:01:21;;;;;;;18.50;9.02;;;;;;;;;;10300952;28;20085;-71
2022/03/09 12:06:41;;;;;;;21.00;11.13;;;;;;;;;;10286822;28;20118;-73
2022/03/09 12:12:05;;;;;;;30.33;11.20;;;;;;;;;;10301771;28;20027;-75
2022/03/09 12:17:06;;;;;;;17.95;9.32;;;;;;;;;;10285689;28;20047;-75
2022/03/09 12:22:07;;;;;;;13.88;7.45;;;;;;;;;;10301662;28;20023;-73
2022/03/09 12:27:28;;;;;;;16.48;8.80;;;;;;;;;;10284665;28;20053;-72
2022/03/09 12:32:39;;;;;;;22.67;11.35;;;;;;;;;;10285303;28;20074;-75
2022/03/09 12:37:39;;;;;;;26.23;12.00;;;;;;;;;;10300879;28;20490;-72
2022/03/09 12:42:40;;;;;;;25.15;10.77;;;;;;;;;;10284579;28;20114;-77
2022/03/09 12:47:43;;;;;;;19.65;11.23;;;;;;;;;;10295301;28;20511;-71
2022/03/09 12:52:44;;;;;;;19.95;11.32;;;;;;;;;;10283572;28;20031;-72
2022/03/09 12:57:53;;;;;;;22.45;11.85;;;;;;;;;;10300554;28;20057;-73
2022/03/09 13:02:54;;;;;;;26.75;13.82;;;;;;;;;;10283794;28;20018;-76
2022/03/09 13:07:55;;;;;;;31.85;13.18;;;;;;;;;;10297276;28;20791;-75
2022/03/09 13:12:56;;;;;;;19.27;9.43;;;;;;;;;;10284601;28;20043;-73
2022/03/09 13:17:57;;;;;;;31.40;10.98;;;;;;;;;;10282359;28;20031;-75
2022/03/09 13:22:57;;;;;;;24.23;10.63;;;;;;;;;;10277180;28;20019;-72
2022/03/09 13:28:01;;;;;;;25.58;12.23;;;;;;;;;;10298153;28;20027;-77
2022/03/09 13:33:08;;;;;;;22.60;10.38;;;;;;;;;;10298751;28;20037;-72
2022/03/09 13:38:10;;;;;;;21.40;9.70;;;;;;;;;;10282951;28;20026;-71
2022/03/09 13:43:10;;;;;;;25.85;9.98;;;;;;;;;;10283388;28;20022;-74
2022/03/09 13:48:22;;;;;;;19.67;9.55;;;;;;;;;;10298199;28;20513;-73
2022/03/09 13:53:22;;;;;;;21.80;9.02;;;;;;;;;;10298628;28;20023;-76
2022/03/09 13:58:23;;;;;;;22.53;11.27;;;;;;;;;;10283182;28;20105;-71
2022/03/09 14:03:24;;;;;;;25.77;11.32;;;;;;;;;;10298109;28;20054;-72
2022/03/09 14:08:31;;;;;;;20.70;10.80;;;;;;;;;;10283394;28;20022;-71
2022/03/09 14:13:33;;;;;;;29.58;11.75;;;;;;;;;;10297690;28;20050;-71
2022/03/09 14:18:33;;;;;;;21.63;10.57;;;;;;;;;;10272071;28;20071;-71
2022/03/09 14:23:33;;;;;;;24.90;11.73;;;;;;;;;;10281948;28;20097;-70
2022/03/09 14:28:34;;;;;;;25.83;11.52;;;;;;;;;;10290498;28;20023;-75
2022/03/09 14:33:34;;;;;;;26.60;14.38;;;;;;;;;;10287342;28;20027;-73
2022/03/09 14:38:39;;;;;;;32.28;14.25;;;;;;;;;;10286913;28;21067;-71
2022/03/09 14:43:41;;;;;;;32.00;14.48;;;;;;;;;;10303864;28;20034;-70
2022/03/09 14:48:41;;;;;;;31.50;15.80;;;;;;;;;;10304924;28;20464;-70
2022/03/09 14:53:41;;;;;;;38.78;18.30;;;;;;;;;;10290716;28;20023;-73
2022/03/09 14:58:43;;;;;;;40.03;19.23;;;;;;;;;;10304803;28;20520;-71
2022/03/09 15:03:44;;;;;;;43.22;18.17;;;;;;;;;;10289593;28;20057;-75
2022/03/09 15:08:44;;;;;;;38.67;20.40;;;;;;;;;;10303813;28;20561;-75
2022/03/09 15:13:44;;;;;;;38.25;20.92;;;;;;;;;;10288568;28;20049;-76
2022/03/09 15:18:45;;;;;;;46.43;27.20;;;;;;;;;;10287816;28;20070;-75
2022/03/09 15:23:45;;;;;;;46.63;24.33;;;;;;;;;;10287231;28;20273;-70
2022/03/09 15:28:46;;;;;;;40.20;23.02;;;;;;;;;;10286463;28;20481;-72
2022/03/09 15:33:46;;;;;;;51.00;30.65;;;;;;;;;;10302812;28;20034;-72
2022/03/09 15:38:46;;;;;;;44.47;24.00;;;;;;;;;;10302484;28;20030;-72
2022/03/09 15:43:47;;;;;;;35.67;19.60;;;;;;;;;;10286685;28;20038;-72
2022/03/09 15:48:47;;;;;;;31.05;17.15;;;;;;;;;;10285355;28;20031;-72
2022/03/09 15:53:48;;;;;;;34.07;22.77;;;;;;;;;;10287207;28;20031;-77
2022/03/09 15:58:48;;;;;;;34.45;24.48;;;;;;;;;;10301224;28;20026;-70
2022/03/09 16:03:49;;;;;;;46.30;25.13;;;;;;;;;;10285075;28;20038;-75
2022/03/09 16:08:49;;;;;;;42.22;25.25;;;;;;;;;;10300893;28;20121;-71
2022/03/09 16:13:50;;;;;;;35.08;22.42;;;;;;;;;;10284328;28;20047;-71
2022/03/09 16:18:50;;;;;;;45.40;24.13;;;;;;;;;;10285724;28;20637;-74
2022/03/09 16:23:51;;;;;;;43.97;26.83;;;;;;;;;;10299545;28;20031;-71
2022/03/09 16:28:51;;;;;;;40.80;24.35;;;;;;;;;;10280704;28;20037;-73
2022/03/09 16:33:52;;;;;;;43.38;24.75;;;;;;;;;;10284059;28;20539;-71
2022/03/09 16:38:52;;;;;;;44.78;23.23;;;;;;;;;;10288305;28;20034;-69
2022/03/09 16:43:52;;;;;;;41.10;24.58;;;;;;;;;;10272625;28;20035;-71
2022/03/09 16:48:53;;;;;;;48.25;24.17;;;;;;;;;;10285742;28;20058;-70
2022/03/09 16:53:53;;;;;;;44.13;23.55;;;;;;;;;;10299313;28;20023;-71
2022/03/09 16:58:54;;;;;;;39.08;21.60;;;;;;;;;;10279796;28;20452;-72
2022/03/09 17:03:54;;;;;;;42.90;24.75;;;;;;;;;;10296884;28;20464;-75
2022/03/09 17:08:54;;;;;;;45.95;27.30;;;;;;;;;;10282295;28;20421;-71
2022/03/09 17:13:54;;;;;;;38.05;23.38;;;;;;;;;;10298791;28;20046;-71
2022/03/09 17:18:55;;;;;;;38.50;21.87;;;;;;;;;;10297035;28;20197;-76
2022/03/09 17:23:55;;;;;;;43.72;22.50;;;;;;;;;;10283481;28;20258;-72
2022/03/09 17:28:55;;;;;;;41.00;25.58;;;;;;;;;;10284348;28;20034;-71
2022/03/09 17:33:56;;;;;;;44.47;25.00;;;;;;;;;;10284975;28;20031;-72
2022/03/09 17:38:57;;;;;;;35.17;22.23;;;;;;;;;;10285793;28;20150;-72
2022/03/09 17:43:57;;;;;;;43.03;21.55;;;;;;;;;;10283268;28;20063;-71
2022/03/09 17:48:58;;;;;;;39.63;21.23;;;;;;;;;;10277664;28;20472;-76
2022/03/09 17:53:59;;;;;;;32.85;18.98;;;;;;;;;;10290554;28;20413;-71
2022/03/09 17:59:01;;;;;;;35.30;18.25;;;;;;;;;;10281264;28;20035;-72
2022/03/09 18:04:01;;;;;;;32.97;19.60;;;;;;;;;;10290438;28;20537;-73
2022/03/09 18:09:01;;;;;;;39.00;20.33;;;;;;;;;;10290997;28;20088;-71
2022/03/09 18:14:02;;;;;;;33.60;19.37;;;;;;;;;;10291708;28;20046;-72
2022/03/09 18:19:04;;;;;;;42.08;21.60;;;;;;;;;;10305835;28;20150;-72
2022/03/09 18:24:04;;;;;;;38.97;20.17;;;;;;;;;;10307259;28;20038;-71
2022/03/09 18:29:05;;;;;;;36.75;22.27;;;;;;;;;;10291095;28;20516;-72
2022/03/09 18:34:06;;;;;;;40.08;20.35;;;;;;;;;;10288063;28;20151;-72
2022/03/09 18:39:06;;;;;;;43.10;20.13;;;;;;;;;;10281609;28;20293;-75
2022/03/09 18:44:06;;;;;;;33.75;18.95;;;;;;;;;;10300382;28;20521;-69
2022/03/09 18:49:07;;;;;;;40.78;22.08;;;;;;;;;;10406217;23;20188;-70
2022/03/09 18:54:11;;;;;;;35.55;17.65;;;;;;;;;;10321953;28;20463;-70
2022/03/09 18:59:12;;;;;;;44.33;22.35;;;;;;;;;;10303891;28;20473;-74
2022/03/09 19:04:12;;;;;;;37.97;19.25;;;;;;;;;;10428729;23;20054;-70
2022/03/09 19:09:12;;;;;;;39.23;25.13;;;;;;;;;;10323036;28;20510;-73
2022/03/09 19:14:13;;;;;;;35.28;21.70;;;;;;;;;;10323434;28;20320;-70
2022/03/09 19:19:13;;;;;;;31.92;20.33;;;;;;;;;;10324880;28;20026;-76
2022/03/09 19:24:13;;;;;;;31.80;17.58;;;;;;;;;;10323208;28;20038;-72
2022/03/09 19:29:14;;;;;;;31.55;18.33;;;;;;;;;;10323737;28;20023;-71
2022/03/09 19:34:14;;;;;;;29.10;19.20;;;;;;;;;;10322725;28;20049;-71
2022/03/09 19:39:14;;;;;;;31.83;15.47;;;;;;;;;;10335110;28;20034;-71
2022/03/09 19:44:15;;;;;;;25.67;16.47;;;;;;;;;;10337930;28;20088;-73
2022/03/09 19:49:15;;;;;;;25.80;18.52;;;;;;;;;;10323024;28;20034;-73
2022/03/09 19:54:15;;;;;;;26.90;17.38;;;;;;;;;;10320995;28;20053;-75
2022/03/09 19:59:16;;;;;;;28.98;17.88;;;;;;;;;;10320660;28;20038;-73
2022/03/09 20:04:18;;;;;;;30.00;18.00;;;;;;;;;;10336313;28;20602;-72
2022/03/09 20:09:18;;;;;;;21.80;15.48;;;;;;;;;;10318153;28;20301;-71
2022/03/09 20:14:19;;;;;;;22.33;16.02;;;;;;;;;;10323977;28;20085;-71
2022/03/09 20:19:19;;;;;;;25.07;15.83;;;;;;;;;;10322820;28;20034;-71
2022/03/09 20:24:22;;;;;;;25.40;16.67;;;;;;;;;;10326641;28;20277;-71
2022/03/09 20:29:23;;;;;;;19.65;14.05;;;;;;;;;;10323027;28;20520;-71
2022/03/09 20:34:23;;;;;;;26.17;16.50;;;;;;;;;;10323851;28;20037;-72
2022/03/09 20:39:24;;;;;;;27.10;14.98;;;;;;;;;;10305801;28;20270;-71
2022/03/09 20:44:25;;;;;;;25.95;15.80;;;;;;;;;;10323150;28;20031;-72
2022/03/09 20:49:25;;;;;;;25.88;15.20;;;;;;;;;;10320401;28;20038;-75
2022/03/09 20:54:25;;;;;;;28.58;13.90;;;;;;;;;;10284831;28;20035;-75
2022/03/09 20:59:26;;;;;;;22.20;13.63;;;;;;;;;;10283369;28;20085;-72
2022/03/09 21:04:26;;;;;;;24.70;13.75;;;;;;;;;;10385933;23;20533;-72
2022/03/09 21:09:26;;;;;;;20.30;13.07;;;;;;;;;;10323960;28;20034;-75
2022/03/09 21:14:27;;;;;;;29.85;17.40;;;;;;;;;;10338892;28;20499;-75
2022/03/09 21:19:27;;;;;;;25.47;15.50;;;;;;;;;;10313222;28;20476;-71
2022/03/09 21:25:04;;;;;;;27.73;14.43;;;;;;;;;;10282553;28;20331;-71
2022/03/09 21:29:48;;;;;;;25.10;13.70;;;;;;;;;;10291467;28;20022;-74
2022/03/09 21:34:48;;;;;;;33.88;17.40;;;;;;;;;;10323160;28;20030;-71
2022/03/09 21:39:48;;;;;;;35.50;17.67;;;;;;;;;;10323018;28;20477;-70
2022/03/09 21:44:49;;;;;;;30.17;17.17;;;;;;;;;;10322734;28;20112;-73
2022/03/09 21:49:49;;;;;;;37.17;17.13;;;;;;;;;;10322720;28;20189;-73
2022/03/09 21:54:50;;;;;;;32.28;17.95;;;;;;;;;;10308844;28;20019;-70
2022/03/09 21:59:50;;;;;;;31.30;16.63;;;;;;;;;;10282335;28;20429;-75
2022/03/09 22:04:51;;;;;;;31.77;19.80;;;;;;;;;;10282059;28;20130;-72
2022/03/09 22:09:51;;;;;;;32.75;19.92;;;;;;;;;;10292634;28;20308;-71
2022/03/09 22:14:51;;;;;;;32.25;17.58;;;;;;;;;;10299052;28;20085;-75
2022/03/09 22:19:51;;;;;;;33.78;16.88;;;;;;;;;;10308751;28;20018;-73
2022/03/09 22:24:52;;;;;;;33.33;17.55;;;;;;;;;;10322144;28;20080;-71
2022/03/09 22:29:52;;;;;;;32.42;18.15;;;;;;;;;;10321900;28;20031;-71
2022/03/09 22:34:52;;;;;;;35.17;20.30;;;;;;;;;;10323396;28;20025;-71
2022/03/09 22:39:53;;;;;;;32.53;18.13;;;;;;;;;;10321662;28;20018;-74
2022/03/09 22:44:53;;;;;;;28.23;16.55;;;;;;;;;;10326963;28;20026;-71
2022/03/09 22:49:53;;;;;;;35.08;19.23;;;;;;;;;;10312882;28;20030;-71
2022/03/09 22:54:54;;;;;;;36.70;20.13;;;;;;;;;;10329136;28;20030;-72
2022/03/09 22:59:54;;;;;;;36.25;22.90;;;;;;;;;;10329161;28;20840;-73
2022/03/09 23:10:13;;;;;;;41.85;28.52;;;;;;;;;;10329733;28;20034;-72
2022/03/09 23:15:13;;;;;;;41.08;24.38;;;;;;;;;;10344376;28;20022;-70
2022/03/09 23:20:14;;;;;;;42.23;21.63;;;;;;;;;;10328415;28;20022;-72
2022/03/09 23:25:15;;;;;;;35.00;20.17;;;;;;;;;;10328043;28;20022;-73
2022/03/09 23:30:15;;;;;;;45.08;21.42;;;;;;;;;;10328818;28;20137;-71
2022/03/09 23:35:16;;;;;;;40.75;20.02;;;;;;;;;;10327704;28;20019;-76
2022/03/09 23:40:17;;;;;;;47.83;23.40;;;;;;;;;;10327475;28;20440;-73
2022/03/09 23:45:17;;;;;;;38.40;20.50;;;;;;;;;;10328652;28;20030;-70
2022/03/09 23:50:17;;;;;;;35.85;19.48;;;;;;;;;;10328372;28;20053;-78
2022/03/09 23:55:18;;;;;;;39.93;23.43;;;;;;;;;;10328211;28;20568;-78
